sensor_id;sensor_type;location;lat;lon;timestamp;temperature;humidity
48535;DHT22;34323;52.022;5.686;2022-10-30T00:00:39;20.50;99.90
48535;DHT22;34323;52.022;5.686;2022-10-30T00:03:05;20.40;99.90
48535;DHT22;34323;52.022;5.686;2022-10-30T00:05:30;20.30;99.90
48535;DHT22;34323;52.022;5.686;2022-10-30T00:07:57;20.40;99.90
48535;DHT22;34323;52.022;5.686;2022-10-30T00:10:23;20.40;99.90
48535;DHT22;34323;52.022;5.686;2022-10-30T00:12:49;20.40;99.90
48535;DHT22;34323;52.022;5.686;2022-10-30T00:15:15;20.40;99.90
48535;DHT22;34323;52.022;5.686;2022-10-30T00:17:40;20.40;99.90
48535;DHT22;34323;52.022;5.686;2022-10-30T00:20:07;20.30;99.90
48535;DHT22;34323;52.022;5.686;2022-10-30T00:22:34;20.30;99.90
48535;DHT22;34323;52.022;5.686;2022-10-30T00:25:01;20.40;99.90
48535;DHT22;34323;52.022;5.686;2022-10-30T00:27:26;20.40;99.90
48535;DHT22;34323;52.022;5.686;2022-10-30T00:29:52;20.30;99.90
48535;DHT22;34323;52.022;5.686;2022-10-30T00:32:17;20.30;99.90
48535;DHT22;34323;52.022;5.686;2022-10-30T00:34:43;20.20;99.90
48535;DHT22;34323;52.022;5.686;2022-10-30T00:37:08;20.00;99.90
48535;DHT22;34323;52.022;5.686;2022-10-30T00:39:34;20.20;99.90
48535;DHT22;34323;52.022;5.686;2022-10-30T00:41:59;20.10;99.90
48535;DHT22;34323;52.022;5.686;2022-10-30T00:47:33;20.30;99.90
48535;DHT22;34323;52.022;5.686;2022-10-30T00:50:20;20.30;99.90
48535;DHT22;34323;52.022;5.686;2022-10-30T00:52:56;20.40;99.90
48535;DHT22;34323;52.022;5.686;2022-10-30T00:55:29;20.30;99.90
48535;DHT22;34323;52.022;5.686;2022-10-30T00:57:57;20.00;99.90
48535;DHT22;34323;52.022;5.686;2022-10-30T01:00:26;20.00;99.90
48535;DHT22;34323;52.022;5.686;2022-10-30T01:02:52;20.10;99.90
48535;DHT22;34323;52.022;5.686;2022-10-30T01:05:20;20.20;99.90
48535;DHT22;34323;52.022;5.686;2022-10-30T01:07:48;20.20;99.90
48535;DHT22;34323;52.022;5.686;2022-10-30T01:10:14;20.00;99.90
48535;DHT22;34323;52.022;5.686;2022-10-30T01:12:41;19.90;99.90
48535;DHT22;34323;52.022;5.686;2022-10-30T01:15:08;19.90;99.90
48535;DHT22;34323;52.022;5.686;2022-10-30T01:18:05;20.10;99.90
48535;DHT22;34323;52.022;5.686;2022-10-30T01:20:40;20.40;99.90
48535;DHT22;34323;52.022;5.686;2022-10-30T01:23:24;20.40;99.90
48535;DHT22;34323;52.022;5.686;2022-10-30T01:34:18;20.30;99.90
48535;DHT22;34323;52.022;5.686;2022-10-30T01:39:35;20.10;99.90
48535;DHT22;34323;52.022;5.686;2022-10-30T01:45:05;19.80;99.90
48535;DHT22;34323;52.022;5.686;2022-10-30T01:47:55;19.50;99.90
48535;DHT22;34323;52.022;5.686;2022-10-30T01:53:04;19.60;99.90
48535;DHT22;34323;52.022;5.686;2022-10-30T02:01:30;19.40;99.90
48535;DHT22;34323;52.022;5.686;2022-10-30T02:04:00;19.50;99.90
48535;DHT22;34323;52.022;5.686;2022-10-30T02:06:26;19.50;99.90
48535;DHT22;34323;52.022;5.686;2022-10-30T02:08:54;19.60;99.90
48535;DHT22;34323;52.022;5.686;2022-10-30T02:11:21;19.70;99.90
48535;DHT22;34323;52.022;5.686;2022-10-30T02:13:54;19.80;99.90
48535;DHT22;34323;52.022;5.686;2022-10-30T02:16:21;19.80;99.90
48535;DHT22;34323;52.022;5.686;2022-10-30T02:18:47;20.10;99.90
48535;DHT22;34323;52.022;5.686;2022-10-30T02:21:13;20.40;99.90
48535;DHT22;34323;52.022;5.686;2022-10-30T02:23:38;20.50;99.90
48535;DHT22;34323;52.022;5.686;2022-10-30T02:26:04;20.20;99.90
48535;DHT22;34323;52.022;5.686;2022-10-30T02:28:30;20.00;99.90
48535;DHT22;34323;52.022;5.686;2022-10-30T02:30:55;19.90;99.90
48535;DHT22;34323;52.022;5.686;2022-10-30T02:33:21;19.80;99.90
48535;DHT22;34323;52.022;5.686;2022-10-30T02:35:49;19.60;99.90
48535;DHT22;34323;52.022;5.686;2022-10-30T02:38:14;19.60;99.90
48535;DHT22;34323;52.022;5.686;2022-10-30T02:40:40;19.50;99.90
48535;DHT22;34323;52.022;5.686;2022-10-30T02:43:05;19.60;99.90
48535;DHT22;34323;52.022;5.686;2022-10-30T02:45:31;19.60;99.90
48535;DHT22;34323;52.022;5.686;2022-10-30T02:47:58;19.80;99.90
48535;DHT22;34323;52.022;5.686;2022-10-30T02:50:24;20.00;99.90
48535;DHT22;34323;52.022;5.686;2022-10-30T02:52:50;20.10;99.90
48535;DHT22;34323;52.022;5.686;2022-10-30T02:55:15;20.00;99.90
48535;DHT22;34323;52.022;5.686;2022-10-30T02:57:41;20.10;99.90
48535;DHT22;34323;52.022;5.686;2022-10-30T03:00:07;20.10;99.90
48535;DHT22;34323;52.022;5.686;2022-10-30T03:02:32;20.10;99.90
48535;DHT22;34323;52.022;5.686;2022-10-30T03:04:58;20.10;99.90
48535;DHT22;34323;52.022;5.686;2022-10-30T03:07:23;20.00;99.90
48535;DHT22;34323;52.022;5.686;2022-10-30T03:09:49;19.80;99.90
48535;DHT22;34323;52.022;5.686;2022-10-30T03:12:16;19.80;99.90
48535;DHT22;34323;52.022;5.686;2022-10-30T03:14:42;19.90;99.90
48535;DHT22;34323;52.022;5.686;2022-10-30T03:17:07;20.00;99.90
48535;DHT22;34323;52.022;5.686;2022-10-30T03:19:33;20.10;99.90
48535;DHT22;34323;52.022;5.686;2022-10-30T03:21:59;20.10;99.90
48535;DHT22;34323;52.022;5.686;2022-10-30T03:24:25;20.00;99.90
48535;DHT22;34323;52.022;5.686;2022-10-30T03:26:50;19.80;99.90
48535;DHT22;34323;52.022;5.686;2022-10-30T03:29:16;19.70;99.90
48535;DHT22;34323;52.022;5.686;2022-10-30T03:31:42;19.70;99.90
48535;DHT22;34323;52.022;5.686;2022-10-30T03:34:07;19.70;99.90
48535;DHT22;34323;52.022;5.686;2022-10-30T03:36:33;19.70;99.90
48535;DHT22;34323;52.022;5.686;2022-10-30T03:38:58;19.60;99.90
48535;DHT22;34323;52.022;5.686;2022-10-30T03:41:24;19.60;99.90
48535;DHT22;34323;52.022;5.686;2022-10-30T03:43:50;19.40;99.90
48535;DHT22;34323;52.022;5.686;2022-10-30T03:46:15;19.40;99.90
48535;DHT22;34323;52.022;5.686;2022-10-30T03:48:41;19.40;99.90
48535;DHT22;34323;52.022;5.686;2022-10-30T03:51:06;19.40;99.90
48535;DHT22;34323;52.022;5.686;2022-10-30T03:53:32;19.60;99.90
48535;DHT22;34323;52.022;5.686;2022-10-30T03:56:03;19.70;99.90
48535;DHT22;34323;52.022;5.686;2022-10-30T03:58:28;19.80;99.90
48535;DHT22;34323;52.022;5.686;2022-10-30T04:01:00;19.80;99.90
48535;DHT22;34323;52.022;5.686;2022-10-30T04:03:26;19.60;99.90
48535;DHT22;34323;52.022;5.686;2022-10-30T04:05:52;19.40;99.90
48535;DHT22;34323;52.022;5.686;2022-10-30T04:08:17;19.40;99.90
48535;DHT22;34323;52.022;5.686;2022-10-30T04:10:44;19.60;99.90
48535;DHT22;34323;52.022;5.686;2022-10-30T04:13:11;19.80;99.90
48535;DHT22;34323;52.022;5.686;2022-10-30T04:15:37;19.80;99.90
48535;DHT22;34323;52.022;5.686;2022-10-30T04:18:02;19.70;99.90
48535;DHT22;34323;52.022;5.686;2022-10-30T04:20:28;19.50;99.90
48535;DHT22;34323;52.022;5.686;2022-10-30T04:23:01;19.60;99.90
48535;DHT22;34323;52.022;5.686;2022-10-30T04:25:27;19.60;99.90
48535;DHT22;34323;52.022;5.686;2022-10-30T04:27:56;19.40;99.90
48535;DHT22;34323;52.022;5.686;2022-10-30T04:30:22;19.30;99.90
48535;DHT22;34323;52.022;5.686;2022-10-30T04:32:54;19.20;99.90
48535;DHT22;34323;52.022;5.686;2022-10-30T04:35:26;19.20;99.90
48535;DHT22;34323;52.022;5.686;2022-10-30T04:38:02;19.20;99.90
48535;DHT22;34323;52.022;5.686;2022-10-30T04:40:31;19.00;99.90
48535;DHT22;34323;52.022;5.686;2022-10-30T04:42:57;18.90;99.90
48535;DHT22;34323;52.022;5.686;2022-10-30T04:45:23;18.80;99.90
48535;DHT22;34323;52.022;5.686;2022-10-30T04:47:49;18.80;99.90
48535;DHT22;34323;52.022;5.686;2022-10-30T04:50:14;18.90;99.90
48535;DHT22;34323;52.022;5.686;2022-10-30T04:52:40;19.00;99.90
48535;DHT22;34323;52.022;5.686;2022-10-30T04:55:07;19.10;99.90
48535;DHT22;34323;52.022;5.686;2022-10-30T04:57:33;19.00;99.90
48535;DHT22;34323;52.022;5.686;2022-10-30T05:00:02;18.80;99.90
48535;DHT22;34323;52.022;5.686;2022-10-30T05:02:28;18.80;99.90
48535;DHT22;34323;52.022;5.686;2022-10-30T05:04:54;19.10;99.90
48535;DHT22;34323;52.022;5.686;2022-10-30T05:07:19;19.20;99.90
48535;DHT22;34323;52.022;5.686;2022-10-30T05:09:45;19.20;99.90
48535;DHT22;34323;52.022;5.686;2022-10-30T05:12:10;19.40;99.90
48535;DHT22;34323;52.022;5.686;2022-10-30T05:14:36;19.40;99.90
48535;DHT22;34323;52.022;5.686;2022-10-30T05:17:02;19.50;99.90
48535;DHT22;34323;52.022;5.686;2022-10-30T05:19:27;19.30;99.90
48535;DHT22;34323;52.022;5.686;2022-10-30T05:21:53;19.20;99.90
48535;DHT22;34323;52.022;5.686;2022-10-30T05:24:19;19.10;99.90
48535;DHT22;34323;52.022;5.686;2022-10-30T05:26:44;19.20;99.90
48535;DHT22;34323;52.022;5.686;2022-10-30T05:29:11;19.20;99.90
48535;DHT22;34323;52.022;5.686;2022-10-30T05:31:36;19.30;99.90
48535;DHT22;34323;52.022;5.686;2022-10-30T05:34:02;19.30;99.90
48535;DHT22;34323;52.022;5.686;2022-10-30T05:36:27;19.60;99.90
48535;DHT22;34323;52.022;5.686;2022-10-30T05:38:53;19.60;99.90
48535;DHT22;34323;52.022;5.686;2022-10-30T05:41:18;19.50;99.90
48535;DHT22;34323;52.022;5.686;2022-10-30T05:43:44;19.70;99.90
48535;DHT22;34323;52.022;5.686;2022-10-30T05:46:09;19.70;99.90
48535;DHT22;34323;52.022;5.686;2022-10-30T05:48:35;19.50;99.90
48535;DHT22;34323;52.022;5.686;2022-10-30T05:51:00;19.30;99.90
48535;DHT22;34323;52.022;5.686;2022-10-30T05:53:26;19.20;99.90
48535;DHT22;34323;52.022;5.686;2022-10-30T05:55:56;19.10;99.90
48535;DHT22;34323;52.022;5.686;2022-10-30T05:58:22;19.00;99.90
48535;DHT22;34323;52.022;5.686;2022-10-30T06:00:47;19.20;99.90
48535;DHT22;34323;52.022;5.686;2022-10-30T06:03:13;19.20;99.90
48535;DHT22;34323;52.022;5.686;2022-10-30T06:05:39;19.30;99.90
48535;DHT22;34323;52.022;5.686;2022-10-30T06:08:06;19.30;99.90
48535;DHT22;34323;52.022;5.686;2022-10-30T06:10:32;19.40;99.90
48535;DHT22;34323;52.022;5.686;2022-10-30T06:13:00;19.30;99.90
48535;DHT22;34323;52.022;5.686;2022-10-30T06:15:26;19.10;99.90
48535;DHT22;34323;52.022;5.686;2022-10-30T06:17:52;19.10;99.90
48535;DHT22;34323;52.022;5.686;2022-10-30T06:20:19;19.20;99.90
48535;DHT22;34323;52.022;5.686;2022-10-30T06:22:53;19.10;99.90
48535;DHT22;34323;52.022;5.686;2022-10-30T06:25:19;19.10;99.90
48535;DHT22;34323;52.022;5.686;2022-10-30T06:27:45;19.00;99.90
48535;DHT22;34323;52.022;5.686;2022-10-30T06:30:10;18.80;99.90
48535;DHT22;34323;52.022;5.686;2022-10-30T06:32:36;18.60;99.90
48535;DHT22;34323;52.022;5.686;2022-10-30T06:35:02;18.60;99.90
48535;DHT22;34323;52.022;5.686;2022-10-30T06:37:27;18.40;99.90
48535;DHT22;34323;52.022;5.686;2022-10-30T06:39:53;18.30;99.90
48535;DHT22;34323;52.022;5.686;2022-10-30T06:42:18;18.20;99.90
48535;DHT22;34323;52.022;5.686;2022-10-30T06:44:44;18.10;99.90
48535;DHT22;34323;52.022;5.686;2022-10-30T06:47:09;18.10;99.90
48535;DHT22;34323;52.022;5.686;2022-10-30T06:49:35;18.30;99.90
48535;DHT22;34323;52.022;5.686;2022-10-30T06:52:00;18.40;99.90
48535;DHT22;34323;52.022;5.686;2022-10-30T06:54:26;18.40;99.90
48535;DHT22;34323;52.022;5.686;2022-10-30T06:56:52;18.50;99.90
48535;DHT22;34323;52.022;5.686;2022-10-30T06:59:17;18.30;99.90
48535;DHT22;34323;52.022;5.686;2022-10-30T07:01:43;18.30;99.90
48535;DHT22;34323;52.022;5.686;2022-10-30T07:04:08;18.30;99.90
48535;DHT22;34323;52.022;5.686;2022-10-30T07:06:34;18.60;99.90
48535;DHT22;34323;52.022;5.686;2022-10-30T07:08:59;18.80;99.90
48535;DHT22;34323;52.022;5.686;2022-10-30T07:11:25;18.70;99.90
48535;DHT22;34323;52.022;5.686;2022-10-30T07:13:50;18.70;99.90
48535;DHT22;34323;52.022;5.686;2022-10-30T07:16:16;18.90;99.90
48535;DHT22;34323;52.022;5.686;2022-10-30T07:18:42;18.90;99.90
48535;DHT22;34323;52.022;5.686;2022-10-30T07:21:07;18.90;99.90
48535;DHT22;34323;52.022;5.686;2022-10-30T07:23:33;19.00;99.90
48535;DHT22;34323;52.022;5.686;2022-10-30T07:25:58;19.10;99.90
48535;DHT22;34323;52.022;5.686;2022-10-30T07:28:24;19.40;99.90
48535;DHT22;34323;52.022;5.686;2022-10-30T07:30:52;19.50;99.90
48535;DHT22;34323;52.022;5.686;2022-10-30T07:33:17;19.50;99.90
48535;DHT22;34323;52.022;5.686;2022-10-30T07:35:43;19.50;99.90
48535;DHT22;34323;52.022;5.686;2022-10-30T07:38:12;19.50;99.90
48535;DHT22;34323;52.022;5.686;2022-10-30T07:40:38;19.50;99.90
48535;DHT22;34323;52.022;5.686;2022-10-30T07:43:04;19.60;99.90
48535;DHT22;34323;52.022;5.686;2022-10-30T07:45:30;19.60;99.90
48535;DHT22;34323;52.022;5.686;2022-10-30T07:47:56;19.70;99.90
48535;DHT22;34323;52.022;5.686;2022-10-30T07:50:22;19.80;99.90
48535;DHT22;34323;52.022;5.686;2022-10-30T07:52:48;19.70;99.90
48535;DHT22;34323;52.022;5.686;2022-10-30T07:55:14;19.50;99.90
48535;DHT22;34323;52.022;5.686;2022-10-30T07:57:41;19.40;99.90
48535;DHT22;34323;52.022;5.686;2022-10-30T08:00:12;19.30;99.90
48535;DHT22;34323;52.022;5.686;2022-10-30T08:02:38;19.10;99.90
48535;DHT22;34323;52.022;5.686;2022-10-30T08:05:04;19.00;99.90
48535;DHT22;34323;52.022;5.686;2022-10-30T08:07:31;18.90;99.90
48535;DHT22;34323;52.022;5.686;2022-10-30T08:09:57;18.90;99.90
48535;DHT22;34323;52.022;5.686;2022-10-30T08:12:23;18.90;99.90
48535;DHT22;34323;52.022;5.686;2022-10-30T08:14:49;19.00;99.90
48535;DHT22;34323;52.022;5.686;2022-10-30T08:17:15;19.20;99.90
48535;DHT22;34323;52.022;5.686;2022-10-30T08:19:40;19.40;99.90
48535;DHT22;34323;52.022;5.686;2022-10-30T08:22:06;19.70;99.90
48535;DHT22;34323;52.022;5.686;2022-10-30T08:24:32;19.60;99.90
48535;DHT22;34323;52.022;5.686;2022-10-30T08:26:58;19.70;99.90
48535;DHT22;34323;52.022;5.686;2022-10-30T08:29:23;19.70;99.90
48535;DHT22;34323;52.022;5.686;2022-10-30T08:31:50;19.80;99.90
48535;DHT22;34323;52.022;5.686;2022-10-30T08:34:15;20.10;99.90
48535;DHT22;34323;52.022;5.686;2022-10-30T08:36:41;20.40;99.90
48535;DHT22;34323;52.022;5.686;2022-10-30T08:39:08;20.70;99.90
48535;DHT22;34323;52.022;5.686;2022-10-30T08:41:34;21.10;99.90
48535;DHT22;34323;52.022;5.686;2022-10-30T08:43:59;21.30;99.90
48535;DHT22;34323;52.022;5.686;2022-10-30T08:46:25;21.60;99.90
48535;DHT22;34323;52.022;5.686;2022-10-30T08:48:50;21.90;99.90
48535;DHT22;34323;52.022;5.686;2022-10-30T08:51:16;21.90;99.90
48535;DHT22;34323;52.022;5.686;2022-10-30T08:53:42;22.00;99.90
48535;DHT22;34323;52.022;5.686;2022-10-30T08:56:07;22.10;99.90
48535;DHT22;34323;52.022;5.686;2022-10-30T08:58:33;22.40;99.90
48535;DHT22;34323;52.022;5.686;2022-10-30T09:00:58;22.60;99.90
48535;DHT22;34323;52.022;5.686;2022-10-30T09:03:24;22.80;99.90
48535;DHT22;34323;52.022;5.686;2022-10-30T09:05:49;22.60;99.90
48535;DHT22;34323;52.022;5.686;2022-10-30T09:08:15;22.40;99.90
48535;DHT22;34323;52.022;5.686;2022-10-30T09:10:40;22.50;99.90
48535;DHT22;34323;52.022;5.686;2022-10-30T09:13:07;22.70;99.90
48535;DHT22;34323;52.022;5.686;2022-10-30T09:15:33;22.70;99.90
48535;DHT22;34323;52.022;5.686;2022-10-30T09:18:01;22.90;99.90
48535;DHT22;34323;52.022;5.686;2022-10-30T09:20:28;23.20;99.90
48535;DHT22;34323;52.022;5.686;2022-10-30T09:22:54;23.60;99.90
48535;DHT22;34323;52.022;5.686;2022-10-30T09:25:20;23.70;99.90
48535;DHT22;34323;52.022;5.686;2022-10-30T09:27:46;23.60;99.90
48535;DHT22;34323;52.022;5.686;2022-10-30T09:30:12;23.50;99.90
48535;DHT22;34323;52.022;5.686;2022-10-30T09:32:38;23.40;99.90
48535;DHT22;34323;52.022;5.686;2022-10-30T09:35:05;23.30;99.90
48535;DHT22;34323;52.022;5.686;2022-10-30T09:37:37;23.10;99.90
48535;DHT22;34323;52.022;5.686;2022-10-30T09:40:04;23.10;99.90
48535;DHT22;34323;52.022;5.686;2022-10-30T09:42:40;23.00;99.90
48535;DHT22;34323;52.022;5.686;2022-10-30T09:45:32;23.20;99.90
48535;DHT22;34323;52.022;5.686;2022-10-30T09:48:15;23.20;99.90
48535;DHT22;34323;52.022;5.686;2022-10-30T09:53:40;23.50;99.90
48535;DHT22;34323;52.022;5.686;2022-10-30T10:02:12;23.70;99.90
48535;DHT22;34323;52.022;5.686;2022-10-30T10:04:55;23.50;99.90
48535;DHT22;34323;52.022;5.686;2022-10-30T10:08:04;23.40;99.90
48535;DHT22;34323;52.022;5.686;2022-10-30T10:10:43;23.70;99.90
48535;DHT22;34323;52.022;5.686;2022-10-30T10:13:23;23.60;99.90
48535;DHT22;34323;52.022;5.686;2022-10-30T10:15:58;23.40;99.90
48535;DHT22;34323;52.022;5.686;2022-10-30T10:18:33;23.70;99.90
48535;DHT22;34323;52.022;5.686;2022-10-30T10:21:08;23.70;99.90
48535;DHT22;34323;52.022;5.686;2022-10-30T10:23:45;23.80;99.90
48535;DHT22;34323;52.022;5.686;2022-10-30T10:26:31;24.10;99.90
48535;DHT22;34323;52.022;5.686;2022-10-30T10:32:04;24.00;99.90
48535;DHT22;34323;52.022;5.686;2022-10-30T10:34:48;23.80;99.90
48535;DHT22;34323;52.022;5.686;2022-10-30T10:37:26;24.00;99.90
48535;DHT22;34323;52.022;5.686;2022-10-30T10:40:21;24.90;99.90
48535;DHT22;34323;52.022;5.686;2022-10-30T10:46:08;25.90;99.90
48535;DHT22;34323;52.022;5.686;2022-10-30T10:49:06;26.00;99.90
48535;DHT22;34323;52.022;5.686;2022-10-30T10:51:43;26.00;99.90
48535;DHT22;34323;52.022;5.686;2022-10-30T10:54:26;26.60;99.90
48535;DHT22;34323;52.022;5.686;2022-10-30T10:56:52;26.90;99.90
48535;DHT22;34323;52.022;5.686;2022-10-30T10:59:28;26.70;99.90
48535;DHT22;34323;52.022;5.686;2022-10-30T11:04:39;27.10;99.90
48535;DHT22;34323;52.022;5.686;2022-10-30T11:07:20;27.20;99.90
48535;DHT22;34323;52.022;5.686;2022-10-30T11:09:50;27.30;99.90
48535;DHT22;34323;52.022;5.686;2022-10-30T11:12:19;27.40;99.90
48535;DHT22;34323;52.022;5.686;2022-10-30T11:14:47;27.70;99.90
48535;DHT22;34323;52.022;5.686;2022-10-30T11:17:28;28.20;99.90
48535;DHT22;34323;52.022;5.686;2022-10-30T11:20:00;28.60;99.90
48535;DHT22;34323;52.022;5.686;2022-10-30T11:22:37;29.20;99.90
48535;DHT22;34323;52.022;5.686;2022-10-30T11:27:46;27.70;99.90
48535;DHT22;34323;52.022;5.686;2022-10-30T11:30:17;27.60;99.90
48535;DHT22;34323;52.022;5.686;2022-10-30T11:32:44;27.50;99.90
48535;DHT22;34323;52.022;5.686;2022-10-30T11:35:13;27.50;99.90
48535;DHT22;34323;52.022;5.686;2022-10-30T11:37:40;27.30;99.90
48535;DHT22;34323;52.022;5.686;2022-10-30T11:40:16;27.80;99.90
48535;DHT22;34323;52.022;5.686;2022-10-30T11:42:59;28.50;99.90
48535;DHT22;34323;52.022;5.686;2022-10-30T11:45:32;28.60;99.90
48535;DHT22;34323;52.022;5.686;2022-10-30T11:47:59;28.60;99.90
48535;DHT22;34323;52.022;5.686;2022-10-30T11:50:28;28.60;99.90
48535;DHT22;34323;52.022;5.686;2022-10-30T11:53:08;28.60;99.90
48535;DHT22;34323;52.022;5.686;2022-10-30T11:58:04;28.10;99.90
48535;DHT22;34323;52.022;5.686;2022-10-30T12:00:32;28.20;99.90
48535;DHT22;34323;52.022;5.686;2022-10-30T12:02:59;28.30;99.90
48535;DHT22;34323;52.022;5.686;2022-10-30T12:05:38;28.30;99.90
48535;DHT22;34323;52.022;5.686;2022-10-30T12:10:37;28.60;99.90
48535;DHT22;34323;52.022;5.686;2022-10-30T12:13:05;28.70;99.90
48535;DHT22;34323;52.022;5.686;2022-10-30T12:15:36;28.20;99.90
48535;DHT22;34323;52.022;5.686;2022-10-30T12:18:06;27.60;99.90
48535;DHT22;34323;52.022;5.686;2022-10-30T12:20:35;26.50;99.90
48535;DHT22;34323;52.022;5.686;2022-10-30T12:23:09;26.50;99.90
48535;DHT22;34323;52.022;5.686;2022-10-30T12:25:36;26.50;99.90
48535;DHT22;34323;52.022;5.686;2022-10-30T12:28:31;26.30;99.90
48535;DHT22;34323;52.022;5.686;2022-10-30T12:31:20;26.50;99.90
48535;DHT22;34323;52.022;5.686;2022-10-30T12:36:22;27.00;99.90
48535;DHT22;34323;52.022;5.686;2022-10-30T12:38:53;27.30;99.90
48535;DHT22;34323;52.022;5.686;2022-10-30T12:41:33;27.00;99.90
48535;DHT22;34323;52.022;5.686;2022-10-30T12:47:16;26.80;99.90
48535;DHT22;34323;52.022;5.686;2022-10-30T12:49:50;26.40;99.90
48535;DHT22;34323;52.022;5.686;2022-10-30T12:53:21;26.50;99.90
48535;DHT22;34323;52.022;5.686;2022-10-30T12:58:22;26.40;99.90
48535;DHT22;34323;52.022;5.686;2022-10-30T13:01:01;26.50;99.90
48535;DHT22;34323;52.022;5.686;2022-10-30T13:03:34;26.40;99.90
48535;DHT22;34323;52.022;5.686;2022-10-30T13:06:12;26.30;99.90
48535;DHT22;34323;52.022;5.686;2022-10-30T13:11:39;26.50;99.90
48535;DHT22;34323;52.022;5.686;2022-10-30T13:14:13;26.50;99.90
48535;DHT22;34323;52.022;5.686;2022-10-30T13:16:40;26.20;99.90
48535;DHT22;34323;52.022;5.686;2022-10-30T13:19:10;26.30;99.90
48535;DHT22;34323;52.022;5.686;2022-10-30T13:24:13;26.00;99.90
48535;DHT22;34323;52.022;5.686;2022-10-30T13:26:51;26.20;99.90
48535;DHT22;34323;52.022;5.686;2022-10-30T13:29:44;26.10;99.90
48535;DHT22;34323;52.022;5.686;2022-10-30T13:35:00;25.90;99.90
48535;DHT22;34323;52.022;5.686;2022-10-30T13:42:55;26.20;99.90
48535;DHT22;34323;52.022;5.686;2022-10-30T13:45:45;25.90;99.90
48535;DHT22;34323;52.022;5.686;2022-10-30T13:48:35;25.80;99.90
48535;DHT22;34323;52.022;5.686;2022-10-30T13:54:12;25.70;99.90
48535;DHT22;34323;52.022;5.686;2022-10-30T13:56:42;25.50;99.90
48535;DHT22;34323;52.022;5.686;2022-10-30T13:59:18;25.50;99.90
48535;DHT22;34323;52.022;5.686;2022-10-30T14:02:11;25.60;99.90
48535;DHT22;34323;52.022;5.686;2022-10-30T14:04:57;25.60;99.90
48535;DHT22;34323;52.022;5.686;2022-10-30T14:07:41;26.00;99.90
48535;DHT22;34323;52.022;5.686;2022-10-30T14:10:27;25.80;99.90
48535;DHT22;34323;52.022;5.686;2022-10-30T14:15:33;25.30;99.90
48535;DHT22;34323;52.022;5.686;2022-10-30T14:20:49;24.90;99.90
48535;DHT22;34323;52.022;5.686;2022-10-30T14:23:20;24.60;99.90
48535;DHT22;34323;52.022;5.686;2022-10-30T14:26:13;24.80;99.90
48535;DHT22;34323;52.022;5.686;2022-10-30T14:28:43;25.10;99.90
48535;DHT22;34323;52.022;5.686;2022-10-30T14:31:11;25.30;99.90
48535;DHT22;34323;52.022;5.686;2022-10-30T14:33:54;25.50;99.90
48535;DHT22;34323;52.022;5.686;2022-10-30T14:36:24;25.70;99.90
48535;DHT22;34323;52.022;5.686;2022-10-30T14:44:55;25.50;99.90
48535;DHT22;34323;52.022;5.686;2022-10-30T14:58:23;25.70;99.90
48535;DHT22;34323;52.022;5.686;2022-10-30T15:00:49;25.60;99.90
48535;DHT22;34323;52.022;5.686;2022-10-30T15:03:42;25.40;99.90
48535;DHT22;34323;52.022;5.686;2022-10-30T15:11:47;25.50;99.90
48535;DHT22;34323;52.022;5.686;2022-10-30T15:14:37;25.50;99.90
48535;DHT22;34323;52.022;5.686;2022-10-30T15:17:05;25.30;99.90
48535;DHT22;34323;52.022;5.686;2022-10-30T15:19:36;25.10;99.90
48535;DHT22;34323;52.022;5.686;2022-10-30T15:22:02;25.20;99.90
48535;DHT22;34323;52.022;5.686;2022-10-30T15:24:28;25.40;99.90
48535;DHT22;34323;52.022;5.686;2022-10-30T15:26:56;25.40;99.90
48535;DHT22;34323;52.022;5.686;2022-10-30T15:29:28;25.40;99.90
48535;DHT22;34323;52.022;5.686;2022-10-30T15:32:00;25.50;99.90
48535;DHT22;34323;52.022;5.686;2022-10-30T15:34:28;25.10;99.90
48535;DHT22;34323;52.022;5.686;2022-10-30T15:36:54;24.80;99.90
48535;DHT22;34323;52.022;5.686;2022-10-30T15:39:20;24.50;99.90
48535;DHT22;34323;52.022;5.686;2022-10-30T15:41:53;24.10;99.90
48535;DHT22;34323;52.022;5.686;2022-10-30T15:44:22;24.00;99.90
48535;DHT22;34323;52.022;5.686;2022-10-30T15:46:53;23.90;99.90
48535;DHT22;34323;52.022;5.686;2022-10-30T15:49:40;23.90;99.90
48535;DHT22;34323;52.022;5.686;2022-10-30T15:52:22;23.90;99.90
48535;DHT22;34323;52.022;5.686;2022-10-30T15:54:58;23.90;99.90
48535;DHT22;34323;52.022;5.686;2022-10-30T15:57:48;23.80;99.90
48535;DHT22;34323;52.022;5.686;2022-10-30T16:00:26;23.80;99.90
48535;DHT22;34323;52.022;5.686;2022-10-30T16:05:35;24.10;99.90
48535;DHT22;34323;52.022;5.686;2022-10-30T16:08:02;24.10;99.90
48535;DHT22;34323;52.022;5.686;2022-10-30T16:10:34;24.20;99.90
48535;DHT22;34323;52.022;5.686;2022-10-30T16:13:01;24.40;99.90
48535;DHT22;34323;52.022;5.686;2022-10-30T16:15:28;24.50;99.90
48535;DHT22;34323;52.022;5.686;2022-10-30T16:20:27;24.40;99.90
48535;DHT22;34323;52.022;5.686;2022-10-30T16:22:53;24.30;99.90
48535;DHT22;34323;52.022;5.686;2022-10-30T16:25:20;24.20;99.90
48535;DHT22;34323;52.022;5.686;2022-10-30T16:27:45;23.90;99.90
48535;DHT22;34323;52.022;5.686;2022-10-30T16:30:13;23.80;99.90
48535;DHT22;34323;52.022;5.686;2022-10-30T16:32:39;23.80;99.90
48535;DHT22;34323;52.022;5.686;2022-10-30T16:35:06;23.80;99.90
48535;DHT22;34323;52.022;5.686;2022-10-30T16:37:37;23.50;99.90
48535;DHT22;34323;52.022;5.686;2022-10-30T16:40:11;23.30;99.90
48535;DHT22;34323;52.022;5.686;2022-10-30T16:42:37;23.20;99.90
48535;DHT22;34323;52.022;5.686;2022-10-30T16:47:51;23.50;99.90
48535;DHT22;34323;52.022;5.686;2022-10-30T16:50:32;23.50;99.90
48535;DHT22;34323;52.022;5.686;2022-10-30T16:53:06;23.50;99.90
48535;DHT22;34323;52.022;5.686;2022-10-30T16:55:32;23.20;99.90
48535;DHT22;34323;52.022;5.686;2022-10-30T16:58:00;23.30;99.90
48535;DHT22;34323;52.022;5.686;2022-10-30T17:00:27;23.30;99.90
48535;DHT22;34323;52.022;5.686;2022-10-30T17:02:54;23.40;99.90
48535;DHT22;34323;52.022;5.686;2022-10-30T17:05:30;23.30;99.90
48535;DHT22;34323;52.022;5.686;2022-10-30T17:08:26;23.00;99.90
48535;DHT22;34323;52.022;5.686;2022-10-30T17:11:04;23.00;99.90
48535;DHT22;34323;52.022;5.686;2022-10-30T17:13:38;23.20;99.90
48535;DHT22;34323;52.022;5.686;2022-10-30T17:16:24;23.40;99.90
48535;DHT22;34323;52.022;5.686;2022-10-30T17:18:51;23.20;99.90
48535;DHT22;34323;52.022;5.686;2022-10-30T17:21:37;23.00;99.90
48535;DHT22;34323;52.022;5.686;2022-10-30T17:24:04;23.10;99.90
48535;DHT22;34323;52.022;5.686;2022-10-30T17:26:34;23.10;99.90
48535;DHT22;34323;52.022;5.686;2022-10-30T17:29:01;23.00;99.90
48535;DHT22;34323;52.022;5.686;2022-10-30T17:36:27;23.00;99.90
48535;DHT22;34323;52.022;5.686;2022-10-30T17:38:52;23.30;99.90
48535;DHT22;34323;52.022;5.686;2022-10-30T17:41:18;23.50;99.90
48535;DHT22;34323;52.022;5.686;2022-10-30T17:43:51;23.60;99.90